Time;durP1;ratioP1;P1;durP2;ratioP2;P2;SDS_P1;SDS_P2;PMS_P1;PMS_P2;Temp;Humidity;BMP_temperature;BMP_pressure;BME280_temperature;BME280_humidity;BME280_pressure;Samples;Min_cycle;Max_cycle;Signal;HPM_P1;HPM_P2
2023/01/22 00:01:09;;;;;;;7.45;2.40;;;;;;;11.17;100.00;101568.56;2103164;28;20047;-73
2023/01/22 00:02:31;;;;;;;6.00;2.35;;;;;;;11.24;100.00;101567.88;2098261;28;20086;-73
2023/01/22 00:03:53;;;;;;;10.57;2.47;;;;;;;11.28;100.00;101571.50;2086429;28;20821;-73
2023/01/22 00:05:15;;;;;;;7.63;1.80;;;;;;;11.29;100.00;101566.25;2095252;28;20053;-73
2023/01/22 00:06:37;;;;;;;9.77;2.25;;;;;;;11.29;100.00;101562.72;2094783;28;20072;-73
2023/01/22 00:07:58;;;;;;;7.50;1.60;;;;;;;11.36;100.00;101575.22;2094815;28;20052;-74
2023/01/22 00:09:21;;;;;;;10.63;2.25;;;;;;;11.41;100.00;101556.00;2102461;28;20146;-73
2023/01/22 00:10:48;;;;;;;9.35;1.83;;;;;;;11.46;100.00;101567.59;2097296;28;20155;-73
2023/01/22 00:12:12;;;;;;;13.35;3.78;;;;;;;11.43;100.00;101566.59;2097515;28;20068;-73
2023/01/22 00:13:35;;;;;;;11.18;2.33;;;;;;;11.43;100.00;101566.59;2110692;28;20616;-73
2023/01/22 00:14:56;;;;;;;8.90;2.28;;;;;;;11.46;100.00;101556.09;2105622;28;20047;-73
2023/01/22 00:16:19;;;;;;;12.38;3.63;;;;;;;11.48;100.00;101560.59;2102254;28;20048;-73
2023/01/22 00:17:40;;;;;;;14.00;3.35;;;;;;;11.50;100.00;101558.84;2102575;28;20043;-73
2023/01/22 00:19:02;;;;;;;10.25;3.30;;;;;;;11.58;100.00;101559.03;2102292;28;20055;-73
2023/01/22 00:20:23;;;;;;;8.00;2.78;;;;;;;11.61;100.00;101555.59;2094967;28;20562;-73
2023/01/22 00:21:46;;;;;;;7.85;2.35;;;;;;;11.67;100.00;101555.75;2101384;28;20134;-73
2023/01/22 00:23:07;;;;;;;10.95;2.92;;;;;;;11.74;100.00;101553.31;2103235;28;20063;-73
2023/01/22 00:24:29;;;;;;;13.15;2.33;;;;;;;11.77;100.00;101556.00;2111374;28;20043;-73
2023/01/22 00:26:00;;;;;;;9.38;2.13;;;;;;;11.75;100.00;101560.38;2104921;28;20091;-73
2023/01/22 00:27:24;;;;;;;9.73;2.00;;;;;;;11.71;100.00;101557.59;2110041;28;20035;-73
2023/01/22 00:28:46;;;;;;;7.95;1.40;;;;;;;11.71;100.00;101563.78;2092323;28;20040;-73
2023/01/22 00:30:10;;;;;;;7.88;1.85;;;;;;;11.73;100.00;101567.34;2098540;28;20586;-73
2023/01/22 00:31:32;;;;;;;10.75;1.88;;;;;;;11.75;100.00;101557.72;2110846;28;20040;-74
2023/01/22 00:32:54;;;;;;;9.73;1.55;;;;;;;11.71;100.00;101566.41;2105130;28;20659;-73
2023/01/22 00:34:16;;;;;;;9.63;1.83;;;;;;;11.68;100.00;101563.72;2105697;28;20043;-73
2023/01/22 00:35:39;;;;;;;12.23;2.72;;;;;;;11.70;100.00;101569.00;2094593;28;20452;-73
2023/01/22 00:37:01;;;;;;;19.67;8.68;;;;;;;11.76;100.00;101556.88;2100142;28;20584;-73
2023/01/22 00:38:22;;;;;;;6.85;1.85;;;;;;;11.85;100.00;101550.91;2102268;28;20063;-73
2023/01/22 00:39:45;;;;;;;8.80;1.85;;;;;;;11.94;100.00;101557.31;2094814;28;20478;-74
2023/01/22 00:41:08;;;;;;;10.02;1.40;;;;;;;11.97;100.00;101557.38;2101380;28;20044;-74
2023/01/22 00:42:31;;;;;;;11.75;3.60;;;;;;;12.00;100.00;101561.84;2094390;28;20182;-73
2023/01/22 00:43:53;;;;;;;10.20;2.80;;;;;;;11.98;100.00;101551.22;2094493;28;20622;-73
2023/01/22 00:45:16;;;;;;;6.95;3.05;;;;;;;11.94;100.00;101557.31;2106314;28;20059;-74
2023/01/22 00:46:38;;;;;;;8.00;2.88;;;;;;;11.92;100.00;101553.72;2094390;28;20049;-73
2023/01/22 00:47:59;;;;;;;6.05;1.95;;;;;;;11.93;100.00;101554.63;2109006;28;20050;-73
2023/01/22 00:49:22;;;;;;;8.45;2.35;;;;;;;11.92;100.00;101556.38;2099774;28;20051;-74
2023/01/22 00:50:45;;;;;;;8.93;2.17;;;;;;;11.94;100.00;101546.72;2094300;28;20052;-74
2023/01/22 00:52:07;;;;;;;9.10;3.67;;;;;;;11.97;100.00;101546.78;2094541;28;20057;-73
2023/01/22 00:53:30;;;;;;;12.10;2.40;;;;;;;11.96;100.00;101546.75;2094443;28;20049;-73
2023/01/22 00:54:52;;;;;;;11.70;1.52;;;;;;;11.95;100.00;101544.94;2094312;28;20052;-73
2023/01/22 00:56:15;;;;;;;8.95;2.90;;;;;;;11.94;100.00;101545.84;2091503;28;20037;-73
2023/01/22 00:57:38;;;;;;;10.15;1.70;;;;;;;11.93;100.00;101552.88;2108662;28;20044;-73
2023/01/22 00:59:00;;;;;;;8.45;1.13;;;;;;;11.91;100.00;101551.94;2096921;28;20041;-72
2023/01/22 01:00:21;;;;;;;11.18;1.38;;;;;;;11.90;100.00;101549.25;2093866;28;20412;-74
2023/01/22 01:01:44;;;;;;;9.45;1.92;;;;;;;11.90;100.00;101549.25;2107171;28;20438;-73
2023/01/22 01:04:46;;;;;;;8.45;2.38;;;;;;;11.89;100.00;101548.34;2103862;28;20051;-73
2023/01/22 01:06:13;;;;;;;7.93;1.50;;;;;;;11.96;100.00;101559.97;2105353;28;20147;-73
2023/01/22 01:07:35;;;;;;;7.20;1.92;;;;;;;11.99;100.00;101554.75;2102729;28;20403;-73
2023/01/22 01:08:56;;;;;;;8.20;2.15;;;;;;;12.01;100.00;101553.06;2097016;28;20052;-74
2023/01/22 01:10:19;;;;;;;8.80;2.90;;;;;;;11.98;100.00;101556.50;2094329;28;20033;-73
2023/01/22 01:11:42;;;;;;;17.75;5.28;;;;;;;11.99;100.00;101554.75;2094312;28;20578;-73
2023/01/22 01:13:05;;;;;;;24.52;10.82;;;;;;;11.99;100.00;101544.19;2103415;28;20048;-73
2023/01/22 01:14:27;;;;;;;14.55;3.90;;;;;;;12.03;100.00;101556.59;2096949;28;20047;-73
2023/01/22 01:15:49;;;;;;;7.50;1.48;;;;;;;12.09;100.00;101563.78;2094119;28;20090;-73
2023/01/22 01:17:11;;;;;;;13.43;5.15;;;;;;;12.12;100.00;101558.56;2096614;28;20056;-73
2023/01/22 01:18:33;;;;;;;11.02;3.67;;;;;;;12.17;100.00;101567.50;2097293;28;20067;-73
2023/01/22 01:19:56;;;;;;;5.15;1.30;;;;;;;12.18;100.00;101562.25;2102196;28;20054;-73
2023/01/22 01:21:19;;;;;;;7.07;1.40;;;;;;;12.17;100.00;101557.81;2109609;28;20062;-73
2023/01/22 01:22:40;;;;;;;4.78;1.20;;;;;;;12.12;100.00;101555.94;2101562;28;20043;-72
2023/01/22 01:24:03;;;;;;;10.68;1.88;;;;;;;12.11;100.00;101570.00;2107831;28;20048;-73
2023/01/22 01:25:24;;;;;;;6.78;1.08;;;;;;;12.13;100.00;101570.94;2102613;28;20473;-73
2023/01/22 01:26:46;;;;;;;7.13;1.15;;;;;;;12.14;100.00;101559.50;2100646;28;20048;-73
2023/01/22 01:28:10;;;;;;;6.72;1.00;;;;;;;12.15;100.00;101559.53;2094101;28;20056;-73
2023/01/22 01:29:32;;;;;;;7.65;0.93;;;;;;;12.20;100.00;101564.94;2093190;28;20056;-74
2023/01/22 01:30:53;;;;;;;6.85;0.93;;;;;;;12.22;100.00;101564.09;2100027;28;20403;-73
2023/01/22 01:32:16;;;;;;;8.68;2.35;;;;;;;12.23;100.00;101559.69;2093977;28;20063;-73
2023/01/22 01:33:38;;;;;;;6.57;0.80;;;;;;;12.27;100.00;101572.16;2101347;28;20048;-73
2023/01/22 01:34:59;;;;;;;8.57;0.90;;;;;;;12.26;100.00;101571.25;2110533;28;20039;-73
2023/01/22 01:36:24;;;;;;;8.63;1.33;;;;;;;12.25;100.00;101566.81;2095640;28;20397;-73
2023/01/22 01:37:47;;;;;;;6.10;2.30;;;;;;;12.23;100.00;101562.34;2097127;28;20566;-73
2023/01/22 01:39:10;;;;;;;7.18;2.60;;;;;;;12.18;100.00;101567.53;2107994;28;20050;-73
2023/01/22 01:40:31;;;;;;;6.10;1.17;;;;;;;12.10;100.00;101571.75;2093782;28;20539;-73
2023/01/22 01:41:53;;;;;;;8.07;2.08;;;;;;;12.06;100.00;101566.38;2104008;27;20044;-74
2023/01/22 01:43:17;;;;;;;12.00;3.05;;;;;;;12.05;100.00;101567.22;2097369;28;20556;-73
2023/01/22 01:44:43;;;;;;;8.40;2.50;;;;;;;12.01;100.00;101571.56;2101317;28;20067;-73
2023/01/22 01:46:15;;;;;;;10.23;3.63;;;;;;;11.95;100.00;101566.13;2094699;28;20040;-73
2023/01/22 01:47:37;;;;;;;11.40;3.28;;;;;;;11.91;100.00;101562.53;2093735;28;20048;-72
2023/01/22 01:48:59;;;;;;;7.03;2.63;;;;;;;11.89;100.00;101563.34;2099366;28;20059;-73
2023/01/22 01:50:25;;;;;;;10.60;3.45;;;;;;;11.89;100.00;101558.94;2093962;28;20097;-73
2023/01/22 01:51:49;;;;;;;9.77;2.40;;;;;;;11.87;100.00;101558.03;2100907;28;20048;-73
2023/01/22 01:53:11;;;;;;;10.48;1.55;;;;;;;11.91;100.00;101556.34;2104760;28;20442;-73
2023/01/22 01:54:34;;;;;;;7.70;1.90;;;;;;;11.91;100.00;101564.28;2110454;28;20043;-73
2023/01/22 01:55:57;;;;;;;7.28;1.60;;;;;;;11.86;100.00;101558.88;2088667;28;20064;-73
2023/01/22 01:57:24;;;;;;;7.82;3.20;;;;;;;11.83;100.00;101569.38;2091548;28;20039;-73
2023/01/22 01:58:53;;;;;;;8.48;2.42;;;;;;;11.81;100.00;101555.25;2098139;28;20051;-73
2023/01/22 02:00:17;;;;;;;9.13;2.50;;;;;;;11.78;100.00;101567.50;2093336;28;20067;-74
2023/01/22 02:01:41;;;;;;;11.27;3.50;;;;;;;11.74;100.00;101568.28;2095546;28;20050;-73
2023/01/22 02:03:03;;;;;;;13.05;4.20;;;;;;;11.70;100.00;101566.38;2085815;28;20087;-73
2023/01/22 02:04:27;;;;;;;15.77;5.90;;;;;;;11.71;100.00;101576.09;2106733;28;20083;-73
2023/01/22 02:05:50;;;;;;;10.80;3.20;;;;;;;11.71;100.00;101574.34;2104932;28;20070;-72
2023/01/22 02:07:13;;;;;;;10.88;3.80;;;;;;;11.73;100.00;101577.94;2098774;28;20067;-73
2023/01/22 02:08:35;;;;;;;11.95;3.30;;;;;;;11.71;100.00;101576.09;2101852;28;20364;-73
2023/01/22 02:09:58;;;;;;;8.43;1.80;;;;;;;11.67;100.00;101582.19;2104766;28;20044;-73
2023/01/22 02:11:20;;;;;;;12.48;3.92;;;;;;;11.65;100.00;101568.91;2107897;28;20100;-72
2023/01/22 02:12:43;;;;;;;12.38;4.45;;;;;;;11.66;100.00;101576.00;2094134;28;20102;-73
2023/01/22 02:14:10;;;;;;;8.70;3.55;;;;;;;11.66;100.00;101569.81;2095868;28;20048;-73
2023/01/22 02:15:32;;;;;;;7.72;3.22;;;;;;;11.63;100.00;101567.09;2101721;28;20048;-73
2023/01/22 02:17:10;;;;;;;12.85;4.70;;;;;;;11.61;100.00;101571.47;2085453;28;20413;-73
2023/01/22 02:18:31;;;;;;;14.10;6.20;;;;;;;11.60;100.00;101570.56;2104254;28;20100;-74
2023/01/22 02:19:53;;;;;;;13.07;3.55;;;;;;;11.58;100.00;101573.16;2093669;28;20415;-73
2023/01/22 02:21:37;;;;;;;11.25;2.70;;;;;;;11.59;100.00;101574.06;2099597;28;20392;-73
2023/01/22 02:22:59;;;;;;;7.25;1.98;;;;;;;11.58;100.00;101575.81;2096479;28;20048;-72
2023/01/22 02:24:22;;;;;;;9.63;3.33;;;;;;;11.63;100.00;101575.91;2093656;28;20138;-72
2023/01/22 02:25:44;;;;;;;11.73;2.47;;;;;;;11.63;100.00;101572.38;2100959;28;20056;-73
2023/01/22 02:27:08;;;;;;;11.65;2.55;;;;;;;11.65;100.00;101573.31;2093054;28;20389;-73
2023/01/22 02:28:29;;;;;;;7.55;1.92;;;;;;;11.66;100.00;101573.34;2091400;28;20041;-73
2023/01/22 02:29:52;;;;;;;9.82;3.60;;;;;;;11.69;100.00;101578.69;2083178;28;20504;-73
2023/01/22 02:31:13;;;;;;;9.20;4.47;;;;;;;11.73;100.00;101577.03;2096819;28;20044;-74
2023/01/22 02:32:36;;;;;;;11.02;5.07;;;;;;;11.74;100.00;101579.75;2093003;28;20044;-72
2023/01/22 02:33:57;;;;;;;15.00;6.78;;;;;;;11.77;100.00;101577.19;2105944;28;20422;-73
2023/01/22 02:35:22;;;;;;;13.88;5.20;;;;;;;11.80;100.00;101569.31;2100258;28;20050;-73
2023/01/22 02:36:48;;;;;;;13.98;6.13;;;;;;;11.85;100.00;101574.72;2096056;28;20381;-73
2023/01/22 02:38:10;;;;;;;16.67;6.28;;;;;;;11.85;100.00;101570.31;2107286;28;20202;-73
2023/01/22 02:39:32;;;;;;;13.93;6.32;;;;;;;11.86;100.00;101573.84;2110271;28;20031;-73
2023/01/22 02:40:58;;;;;;;12.02;4.35;;;;;;;11.86;100.00;101572.13;2107649;28;20048;-73
2023/01/22 02:42:20;;;;;;;10.07;3.47;;;;;;;11.87;100.00;101578.31;2094130;28;20056;-73
2023/01/22 02:43:42;;;;;;;6.90;1.65;;;;;;;11.87;100.00;101579.19;2093425;28;20083;-73
2023/01/22 02:45:05;;;;;;;4.57;1.23;;;;;;;11.83;100.00;101585.25;2112948;28;20051;-73
2023/01/22 02:46:26;;;;;;;11.23;2.90;;;;;;;11.84;100.00;101583.50;2104797;28;20036;-73
2023/01/22 02:47:48;;;;;;;6.25;1.60;;;;;;;11.86;100.00;101589.75;2102605;28;20040;-73
2023/01/22 02:49:10;;;;;;;8.30;1.63;;;;;;;11.95;100.00;101587.28;2100598;28;20052;-73
2023/01/22 02:50:32;;;;;;;11.25;1.70;;;;;;;11.98;100.00;101575.03;2093210;28;20135;-73
2023/01/22 02:51:55;;;;;;;10.15;2.05;;;;;;;12.00;100.00;101587.41;2099381;28;20043;-73
2023/01/22 02:53:18;;;;;;;4.70;0.90;;;;;;;11.99;100.00;101575.94;2093933;28;20151;-73
2023/01/22 02:54:41;;;;;;;7.25;0.90;;;;;;;12.00;100.00;101584.75;2107689;28;20050;-73
2023/01/22 02:56:05;;;;;;;10.80;0.85;;;;;;;12.03;100.00;101587.47;2087972;28;20516;-73
2023/01/22 02:57:31;;;;;;;7.68;0.80;;;;;;;12.05;100.00;101583.13;2099827;28;20048;-73
2023/01/22 02:58:53;;;;;;;8.73;0.63;;;;;;;12.02;100.00;101585.66;2096518;28;20048;-73
2023/01/22 03:00:16;;;;;;;10.07;1.35;;;;;;;12.04;100.00;101590.16;2093514;28;20049;-73
2023/01/22 03:01:38;;;;;;;5.13;0.75;;;;;;;12.05;100.00;101588.41;2096432;28;20423;-73
2023/01/22 03:03:00;;;;;;;8.88;1.40;;;;;;;12.04;100.00;101583.97;2086423;28;20045;-73
2023/01/22 03:04:21;;;;;;;8.25;0.85;;;;;;;12.01;100.00;101590.09;2090514;28;20081;-73
2023/01/22 03:05:47;;;;;;;4.13;1.13;;;;;;;12.02;100.00;101589.22;2097377;28;20105;-73
2023/01/22 03:07:10;;;;;;;5.78;0.85;;;;;;;12.02;100.00;101591.88;2094044;28;20040;-73
2023/01/22 03:08:32;;;;;;;9.00;0.77;;;;;;;12.00;100.00;101590.97;2093029;28;20162;-73
2023/01/22 03:09:55;;;;;;;6.95;1.17;;;;;;;11.98;100.00;101596.22;2090975;28;20569;-73
2023/01/22 03:11:16;;;;;;;9.45;1.27;;;;;;;11.96;100.00;101592.63;2099281;28;20108;-73
2023/01/22 03:21:17;;;;;;;7.20;1.10;;;;;;;11.78;100.00;101591.28;2089440;28;20049;-73
2023/01/22 03:22:41;;;;;;;8.20;1.30;;;;;;;11.74;100.00;101592.09;2108898;28;20067;-73
2023/01/22 03:24:04;;;;;;;7.15;1.25;;;;;;;11.72;100.00;101597.31;2099359;28;20056;-73
2023/01/22 03:25:25;;;;;;;5.45;0.80;;;;;;;11.72;100.00;101597.31;2097317;28;20086;-73
2023/01/22 03:26:48;;;;;;;6.15;0.98;;;;;;;11.72;100.00;101591.13;2092351;28;20048;-73
2023/01/22 03:28:15;;;;;;;8.45;1.00;;;;;;;11.74;100.00;101594.75;2092560;28;20040;-73
2023/01/22 03:29:41;;;;;;;4.60;0.82;;;;;;;11.75;100.00;101597.41;2102256;28;20580;-73
2023/01/22 03:31:02;;;;;;;6.80;0.80;;;;;;;11.77;100.00;101593.03;2107705;28;20063;-73
2023/01/22 03:32:26;;;;;;;11.88;1.08;;;;;;;11.82;100.00;101595.78;2105929;28;20071;-73
2023/01/22 03:33:47;;;;;;;7.65;1.13;;;;;;;11.82;100.00;101590.50;2095349;28;20037;-73
2023/01/22 03:35:09;;;;;;;8.55;1.23;;;;;;;11.81;100.00;101592.28;2091627;28;20497;-73
2023/01/22 03:36:46;;;;;;;6.53;1.48;;;;;;;11.78;100.00;101596.59;2105894;28;21895;-73
2023/01/22 03:38:10;;;;;;;10.48;0.90;;;;;;;11.77;100.00;101600.97;2109785;28;20111;-73
2023/01/22 03:39:33;;;;;;;16.00;1.30;;;;;;;11.76;100.00;101596.53;2108081;28;20036;-73
2023/01/22 03:41:04;;;;;;;12.38;1.60;;;;;;;11.75;100.00;101596.53;2094955;28;20509;-73
2023/01/22 03:42:27;;;;;;;9.73;1.30;;;;;;;11.71;100.00;101597.25;2093354;28;20044;-73
2023/01/22 03:43:50;;;;;;;9.13;0.90;;;;;;;11.68;100.00;101597.19;2100628;28;20098;-73
2023/01/22 03:45:14;;;;;;;8.95;1.08;;;;;;;11.66;100.00;101597.16;2099474;28;20132;-73
2023/01/22 03:46:38;;;;;;;5.38;1.05;;;;;;;11.64;100.00;101593.56;2100200;28;20055;-73
2023/01/22 03:48:01;;;;;;;7.78;1.02;;;;;;;11.64;100.00;101595.31;2105345;28;20126;-73
2023/01/22 03:49:28;;;;;;;8.05;1.45;;;;;;;11.59;100.00;101595.22;2089291;28;20059;-73
2023/01/22 03:50:52;;;;;;;7.43;1.48;;;;;;;11.58;100.00;101599.59;2113771;27;20051;-73
2023/01/22 03:52:14;;;;;;;10.10;1.60;;;;;;;11.60;100.00;101602.28;2113041;28;20051;-73
2023/01/22 03:53:37;;;;;;;9.60;2.40;;;;;;;11.61;100.00;101603.19;2114130;28;20531;-73
2023/01/22 03:55:00;;;;;;;8.10;2.03;;;;;;;11.62;100.00;101599.69;2089841;28;20045;-73
2023/01/22 03:56:23;;;;;;;8.75;2.25;;;;;;;11.63;100.00;101601.47;2089782;28;20082;-73
2023/01/22 03:57:45;;;;;;;15.48;3.50;;;;;;;11.62;100.00;101600.56;2093160;28;20052;-73
2023/01/22 03:59:09;;;;;;;10.27;2.50;;;;;;;11.59;100.00;101601.41;2108825;28;20403;-73
2023/01/22 04:00:31;;;;;;;9.30;2.63;;;;;;;11.55;100.00;101594.22;2098214;28;20059;-73
2023/01/22 04:01:54;;;;;;;9.43;3.00;;;;;;;11.53;100.00;101598.59;2086417;28;20041;-73
2023/01/22 04:03:15;;;;;;;10.13;3.08;;;;;;;11.54;100.00;101596.84;2105431;28;20044;-73
2023/01/22 04:04:38;;;;;;;9.55;3.15;;;;;;;11.52;100.00;101595.91;2103225;28;20112;-73
2023/01/22 04:06:00;;;;;;;13.45;2.95;;;;;;;11.52;100.00;101603.84;2095062;28;20044;-73
2023/01/22 04:07:22;;;;;;;10.43;1.73;;;;;;;11.49;100.00;101595.81;2094894;28;20043;-73
2023/01/22 04:08:48;;;;;;;10.02;2.00;;;;;;;11.50;100.00;101592.31;2109512;28;20496;-73
2023/01/22 04:10:11;;;;;;;10.25;1.83;;;;;;;11.49;100.00;101598.47;2100206;28;20048;-73
2023/01/22 04:11:34;;;;;;;11.70;1.85;;;;;;;11.46;100.00;101595.75;2091802;28;20044;-73
2023/01/22 04:12:55;;;;;;;11.68;1.77;;;;;;;11.44;100.00;101582.50;2095929;28;20392;-73
2023/01/22 04:14:18;;;;;;;7.45;1.15;;;;;;;11.40;100.00;101588.56;2096741;28;20511;-73
2023/01/22 04:16:01;;;;;;;5.95;1.15;;;;;;;11.36;100.00;101593.72;2110146;28;20052;-73
2023/01/22 04:17:43;;;;;;;;;;;;;;;11.24;100.00;101596.06;2089921;28;20061;-73
2023/01/22 04:19:23;;;;;;;8.48;2.08;;;;;;;11.19;100.00;101595.94;2096921;28;19924;-74
2023/01/22 04:20:52;;;;;;;6.32;1.55;;;;;;;11.18;100.00;101604.72;2101858;28;20052;-73
2023/01/22 04:22:26;;;;;;;8.30;2.10;;;;;;;11.15;100.00;101596.72;2103280;28;20036;-73
2023/01/22 04:23:53;;;;;;;11.38;2.33;;;;;;;11.14;100.00;101598.47;2102348;28;20048;-73
2023/01/22 04:25:14;;;;;;;8.35;1.30;;;;;;;11.12;100.00;101597.53;2100903;28;20052;-73
2023/01/22 04:26:38;;;;;;;6.10;0.90;;;;;;;11.11;100.00;101600.13;2103174;28;20520;-73
2023/01/22 04:28:00;;;;;;;8.02;1.00;;;;;;;11.10;100.00;101593.94;2094055;28;20072;-73
2023/01/22 04:29:22;;;;;;;8.48;1.42;;;;;;;11.09;100.00;101592.16;2088963;28;20081;-73
2023/01/22 04:30:46;;;;;;;9.73;1.52;;;;;;;11.10;100.00;101596.59;2092155;28;20044;-73
2023/01/22 04:32:33;;;;;;;6.55;1.20;;;;;;;11.07;100.00;101590.34;2097152;28;20492;-73
2023/01/22 04:34:04;;;;;;;11.07;1.48;;;;;;;11.07;100.00;101596.53;2094282;28;20044;-73
2023/01/22 04:35:35;;;;;;;8.70;1.38;;;;;;;11.07;100.00;101599.16;2095369;28;20040;-74
2023/01/22 04:36:57;;;;;;;8.15;2.00;;;;;;;11.09;100.00;101597.44;2093137;28;20040;-73
2023/01/22 04:38:23;;;;;;;9.38;2.67;;;;;;;11.09;100.00;101608.00;2110376;28;20603;-73
2023/01/22 04:39:47;;;;;;;11.40;2.15;;;;;;;11.09;100.00;101608.00;2094846;28;20071;-73
2023/01/22 04:41:09;;;;;;;8.63;2.72;;;;;;;11.06;100.00;101613.22;2093617;28;20057;-73
2023/01/22 04:42:31;;;;;;;9.88;2.40;;;;;;;11.01;100.00;101606.03;2102458;28;20097;-73
2023/01/22 04:43:55;;;;;;;11.13;3.42;;;;;;;10.91;100.00;101607.50;2102973;28;20146;-73
2023/01/22 04:45:20;;;;;;;10.57;2.97;;;;;;;10.84;100.00;101616.09;2107866;28;20046;-73
2023/01/22 04:46:42;;;;;;;9.23;2.47;;;;;;;10.78;100.00;101610.66;2102841;28;20526;-73
2023/01/22 04:48:07;;;;;;;14.20;3.38;;;;;;;10.73;100.00;101612.28;2103401;28;20105;-73
2023/01/22 04:49:29;;;;;;;11.10;4.45;;;;;;;10.76;100.00;101615.03;2093180;28;20135;-73
2023/01/22 04:50:52;;;;;;;12.25;4.47;;;;;;;10.80;100.00;101611.59;2093718;28;20071;-74
2023/01/22 04:52:14;;;;;;;14.02;2.92;;;;;;;10.86;100.00;101618.81;2091721;28;20048;-74
2023/01/22 04:53:37;;;;;;;8.18;2.25;;;;;;;10.92;100.00;101616.31;2108809;28;20487;-74
2023/01/22 04:55:02;;;;;;;8.73;2.20;;;;;;;10.98;100.00;101612.09;2100332;28;20069;-74
2023/01/22 04:56:33;;;;;;;;;;;;;;;10.98;100.00;101611.22;2102949;28;20040;-73
2023/01/22 04:57:56;;;;;;;11.63;2.30;;;;;;;11.05;100.00;101623.75;2102069;28;19973;-74
2023/01/22 04:59:18;;;;;;;9.77;2.10;;;;;;;11.10;100.00;101617.72;2094397;28;20060;-74
2023/01/22 05:00:40;;;;;;;6.97;1.52;;;;;;;11.13;100.00;101622.22;2093802;28;20048;-74
2023/01/22 05:02:02;;;;;;;6.28;2.13;;;;;;;11.15;100.00;101625.78;2099904;28;20409;-74
2023/01/22 05:03:26;;;;;;;9.70;2.45;;;;;;;11.18;100.00;101629.41;2094471;28;20079;-74
2023/01/22 05:04:47;;;;;;;9.65;2.28;;;;;;;11.19;100.00;101625.91;2094117;28;20056;-73
2023/01/22 05:06:10;;;;;;;8.98;2.47;;;;;;;11.21;100.00;101631.25;2091371;28;20079;-72
2023/01/22 05:07:33;;;;;;;10.40;2.55;;;;;;;11.23;100.00;101624.22;2100000;28;20055;-73
2023/01/22 05:08:55;;;;;;;11.80;3.35;;;;;;;11.22;100.00;101627.75;2102670;28;20054;-74
2023/01/22 05:10:18;;;;;;;12.32;4.28;;;;;;;11.24;100.00;101625.13;2102245;28;20041;-73
2023/01/22 05:11:41;;;;;;;7.72;2.08;;;;;;;11.22;100.00;101633.03;2094024;28;20145;-73
2023/01/22 05:13:04;;;;;;;10.30;1.90;;;;;;;11.24;100.00;101633.06;2105347;28;20991;-73
2023/01/22 05:14:26;;;;;;;8.25;1.75;;;;;;;11.25;100.00;101634.84;2105096;28;20040;-73
2023/01/22 05:15:48;;;;;;;7.72;2.15;;;;;;;11.22;100.00;101633.03;2094064;28;20048;-72
2023/01/22 05:17:10;;;;;;;11.07;2.03;;;;;;;11.21;100.00;101635.63;2099983;28;20052;-73
2023/01/22 05:18:32;;;;;;;7.00;1.35;;;;;;;11.17;100.00;101632.91;2096481;28;20044;-73
2023/01/22 05:19:55;;;;;;;10.55;1.52;;;;;;;11.17;100.00;101639.91;2094211;28;20101;-73
2023/01/22 05:21:17;;;;;;;10.55;1.45;;;;;;;11.14;100.00;101638.13;2091385;28;20423;-73
2023/01/22 05:22:41;;;;;;;9.73;1.30;;;;;;;11.12;100.00;101639.81;2091748;28;20063;-73
2023/01/22 05:24:04;;;;;;;8.40;1.15;;;;;;;11.08;100.00;101639.69;2093363;28;20052;-73
2023/01/22 05:25:28;;;;;;;8.18;1.33;;;;;;;11.05;100.00;101637.84;2090581;28;20484;-73
2023/01/22 05:26:53;;;;;;;7.38;1.58;;;;;;;11.01;100.00;101637.72;2092211;28;20040;-73
2023/01/22 05:28:22;;;;;;;11.80;1.25;;;;;;;10.93;100.00;101636.63;2096473;28;20052;-73
2023/01/22 05:30:15;;;;;;;8.23;1.10;;;;;;;10.82;100.00;101643.34;2095361;28;20083;-73
2023/01/22 05:31:57;;;;;;;8.25;1.70;;;;;;;10.72;100.00;101642.16;2078709;28;20068;-73
2023/01/22 05:33:32;;;;;;;6.57;0.95;;;;;;;10.68;100.00;101648.22;2097267;28;20044;-73
2023/01/22 05:34:54;;;;;;;9.52;1.30;;;;;;;10.63;100.00;101644.56;2091563;28;20097;-74
2023/01/22 05:36:16;;;;;;;5.80;1.17;;;;;;;10.60;100.00;101652.38;2091245;28;20042;-73
2023/01/22 05:37:38;;;;;;;7.70;1.45;;;;;;;10.60;100.00;101648.00;2094243;28;20059;-73
2023/01/22 05:39:01;;;;;;;9.77;1.42;;;;;;;10.62;100.00;101656.88;2092379;28;20501;-73
2023/01/22 05:40:24;;;;;;;7.95;1.20;;;;;;;10.66;100.00;101652.56;2093798;28;20554;-73
2023/01/22 05:41:48;;;;;;;9.55;1.23;;;;;;;10.70;100.00;101660.59;2088937;28;20048;-73
2023/01/22 05:43:10;;;;;;;9.70;1.35;;;;;;;10.73;100.00;101650.16;2105245;28;20044;-73
2023/01/22 05:44:32;;;;;;;7.60;1.40;;;;;;;10.79;100.00;101657.34;2098335;28;20089;-73
2023/01/22 05:46:00;;;;;;;7.57;1.40;;;;;;;10.86;100.00;101659.31;2093619;28;20090;-73
2023/01/22 05:47:43;;;;;;;6.20;0.70;;;;;;;10.88;100.00;101657.63;2105696;28;20056;-73
2023/01/22 05:49:23;;;;;;;7.32;1.10;;;;;;;10.92;100.00;101659.50;2110131;28;20427;-72
2023/01/22 05:50:49;;;;;;;6.50;1.42;;;;;;;10.97;100.00;101652.59;2100932;28;20043;-72
2023/01/22 05:52:12;;;;;;;9.30;1.63;;;;;;;11.02;100.00;101658.03;2107942;28;20075;-72
2023/01/22 05:53:35;;;;;;;9.98;2.15;;;;;;;11.04;100.00;101659.84;2099635;28;20147;-73
2023/01/22 05:55:00;;;;;;;11.50;1.48;;;;;;;11.08;100.00;101663.47;2091686;28;20048;-74
2023/01/22 05:56:23;;;;;;;7.07;1.15;;;;;;;11.07;100.00;101664.31;2099134;28;20032;-74
2023/01/22 05:57:48;;;;;;;8.82;1.20;;;;;;;11.09;100.00;101662.63;2103731;28;20067;-73
2023/01/22 05:59:13;;;;;;;16.45;1.83;;;;;;;11.11;100.00;101668.81;2104972;28;20589;-73
2023/01/22 06:00:37;;;;;;;11.05;1.52;;;;;;;11.14;100.00;101669.81;2104290;28;20033;-73
2023/01/22 06:02:03;;;;;;;10.60;1.77;;;;;;;11.15;100.00;101663.69;2096875;28;20048;-72
2023/01/22 06:03:26;;;;;;;10.60;3.28;;;;;;;11.19;100.00;101665.56;2097512;28;20047;-73
2023/01/22 06:04:49;;;;;;;17.23;7.10;;;;;;;11.21;100.00;101662.97;2090589;28;20070;-73
2023/01/22 06:06:19;;;;;;;15.43;5.82;;;;;;;11.22;100.00;101656.81;2104632;28;20058;-73
2023/01/22 06:07:43;;;;;;;13.82;6.97;;;;;;;11.23;100.00;101663.88;2091375;28;20064;-72
2023/01/22 06:09:04;;;;;;;22.20;15.02;;;;;;;11.25;100.00;101656.00;2098966;28;20120;-73
2023/01/22 06:10:30;;;;;;;35.70;29.38;;;;;;;11.29;100.00;101663.19;2099839;28;20040;-73
2023/01/22 06:11:53;;;;;;;28.40;25.30;;;;;;;11.32;100.00;101663.25;2106759;28;20130;-73
2023/01/22 06:13:16;;;;;;;36.58;29.08;;;;;;;11.38;100.00;101663.41;2102408;28;20562;-73
2023/01/22 06:14:41;;;;;;;49.28;38.17;;;;;;;11.48;100.00;101660.16;2101193;28;20106;-73
2023/01/22 06:16:02;;;;;;;40.70;34.45;;;;;;;11.62;100.00;101669.31;2098079;28;20032;-73
2023/01/22 06:17:46;;;;;;;58.50;52.33;;;;;;;11.80;100.00;101666.31;2089704;28;20056;-72
2023/01/22 06:19:09;;;;;;;67.43;60.58;;;;;;;11.94;100.00;101668.44;2100392;28;20152;-72
2023/01/22 06:20:38;;;;;;;90.72;78.55;;;;;;;12.09;100.00;101667.91;2102717;28;20044;-73
2023/01/22 06:22:03;;;;;;;107.05;95.00;;;;;;;12.25;100.00;101672.72;2102156;28;20097;-74
2023/01/22 06:23:33;;;;;;;96.22;84.97;;;;;;;12.39;100.00;101665.09;2101162;28;20071;-73
2023/01/22 06:24:55;;;;;;;98.93;88.38;;;;;;;12.53;100.00;101668.94;2099201;28;20048;-73
2023/01/22 06:26:21;;;;;;;91.88;81.78;;;;;;;12.66;100.00;101672.75;2096399;28;20401;-73
2023/01/22 06:27:43;;;;;;;82.53;72.90;;;;;;;12.78;100.00;101670.34;2082754;28;20102;-72
2023/01/22 06:29:07;;;;;;;85.50;76.18;;;;;;;12.91;100.00;101668.84;2090584;28;20068;-73
2023/01/22 06:30:30;;;;;;;91.65;78.68;;;;;;;13.02;100.00;101670.84;2090937;28;20048;-73
2023/01/22 06:31:56;;;;;;;102.90;91.65;;;;;;;13.18;100.00;101673.84;2094095;28;20113;-73
2023/01/22 06:33:19;;;;;;;107.85;89.38;;;;;;;13.32;100.00;101677.66;2096751;28;20040;-73
2023/01/22 06:34:41;;;;;;;108.20;90.72;;;;;;;13.44;100.00;101675.25;2094425;28;20117;-73
2023/01/22 06:36:04;;;;;;;81.55;72.63;;;;;;;13.57;100.00;101686.13;2086082;28;20044;-74